East Star-1 — 9LU2511 — position and weather

sailwx.info

Track history (hours):
 
Tides and Currents Weather Stations Pressure Air Temp Water Temp Dewpoint Dewpoint Depression Visibility Wind Speed Wind Dir Waves Ship Positions

East Star-1

Last reported at 2018-Jul-12 12:42 UTC. Time now 2018-Jul-15 20:53 UTC.
Position N 34°51' E 139°19'.

Length 99 m; draft 5.9 m.

Type: Cargo ship. MMSI: 667001708.

Date/timePositionNaut miles runAvg speedWind from/ knotsBaromVisibWave heightAir tempDewpointWater temp
2018-Jul-12 12:42N 34°51' E 139°19'2 7.6
2018-Jul-12 12:27N 34°52' E 139°21'3 7.6
2018-Jul-12 12:00N 34°54' E 139°24'4 7.4
2018-Jul-12 11:27N 34°57' E 139°27'4 8.2
2018-Jul-12 11:00N 34°59' E 139°31'5 9.5
2018-Jul-12 10:30N 35°02' E 139°36'510.3
2018-Jul-12 10:00N 35°05' E 139°41'510.0
2018-Jul-12 09:30N 35°09' E 139°44'510.6
2018-Jul-12 09:00N 35°14' E 139°46'510.4
2018-Jul-12 08:30N 35°19' E 139°43'510.0
2018-Jul-12 08:00N 35°24' E 139°43'4 7.2
2018-Jul-12 07:30N 35°27' E 139°43'1 2.1
2018-Jul-12 07:00N 35°28' E 139°42'0 0.0
2018-Jul-12 06:27N 35°28' E 139°42'0 0.0
2018-Jul-12 05:57N 35°28' E 139°42'0 0.0
2018-Jul-12 05:30N 35°28' E 139°42'0 0.0
2018-Jul-12 05:00N 35°28' E 139°42'0 0.0
2018-Jul-12 04:30N 35°28' E 139°42'0 0.0
2018-Jul-12 04:00N 35°28' E 139°42'0 0.0
2018-Jul-12 03:30N 35°28' E 139°42'0 0.0
2018-Jul-12 02:57N 35°28' E 139°42'0 0.0
2018-Jul-12 02:30N 35°28' E 139°42'0 0.0
2018-Jul-12 02:00N 35°28' E 139°42'0 0.0
2018-Jul-12 01:30N 35°28' E 139°42'0 0.0
2018-Jul-12 01:00N 35°28' E 139°42'0 0.0
2018-Jul-12 00:30N 35°28' E 139°42'0 0.0
2018-Jul-12 00:00N 35°28' E 139°42'0 0.0
2018-Jul-11 23:30N 35°28' E 139°42'0 0.0
2018-Jul-11 23:00N 35°28' E 139°42'0 0.0
2018-Jul-11 22:30N 35°28' E 139°42'0 0.0
2018-Jul-11 22:00N 35°28' E 139°42'0 0.0
2018-Jul-11 21:30N 35°28' E 139°42'0 0.0
2018-Jul-11 21:00N 35°28' E 139°42'0 0.0
2018-Jul-11 20:30N 35°28' E 139°42'0 0.0
2018-Jul-11 20:00N 35°28' E 139°42'0 0.0
2018-Jul-11 19:30N 35°28' E 139°42'0 0.0
2018-Jul-11 19:00N 35°28' E 139°42'0 0.0
2018-Jul-11 18:30N 35°28' E 139°42'0 0.0
2018-Jul-11 18:00N 35°28' E 139°42'0 0.0
2018-Jul-11 17:24N 35°28' E 139°42'0 0.0
2018-Jul-11 17:00N 35°28' E 139°42'0 0.0
2018-Jul-11 16:30N 35°28' E 139°42'0 0.0
2018-Jul-11 16:00N 35°28' E 139°42'0 0.0
2018-Jul-11 15:30N 35°28' E 139°42'0 0.0
2018-Jul-11 15:00N 35°28' E 139°42'0 0.0
2018-Jul-11 14:30N 35°28' E 139°42'0 0.0
2018-Jul-11 14:00N 35°28' E 139°42'0 0.0
2018-Jul-11 13:30N 35°28' E 139°42'0 0.0
2018-Jul-11 13:00N 35°28' E 139°42'0 0.0
2018-Jul-11 12:30N 35°28' E 139°42'0 0.0
2018-Jul-11 12:00N 35°28' E 139°42'0 0.0
2018-Jul-11 11:30N 35°28' E 139°42'0 0.0
2018-Jul-11 10:57N 35°28' E 139°42'0 0.0
2018-Jul-11 10:30N 35°28' E 139°42'0 0.0
2018-Jul-11 10:00N 35°28' E 139°42'0 0.0
2018-Jul-11 09:30N 35°28' E 139°42'0 0.0
2018-Jul-11 09:00N 35°28' E 139°42'0 0.0
2018-Jul-11 08:30N 35°28' E 139°42'0 0.0
2018-Jul-11 08:00N 35°28' E 139°42'0 0.0
2018-Jul-11 07:30N 35°28' E 139°42'0 0.0
2018-Jul-11 06:57N 35°28' E 139°42'0 0.0
2018-Jul-11 06:30N 35°28' E 139°42'0 0.0
2018-Jul-11 06:00N 35°28' E 139°42'0 0.0
2018-Jul-11 05:30N 35°28' E 139°42'0 0.0
2018-Jul-11 05:00N 35°28' E 139°42'0 0.0
2018-Jul-11 04:30N 35°28' E 139°42'0 0.0
2018-Jul-11 04:00N 35°28' E 139°42'0 0.0
2018-Jul-11 03:30N 35°28' E 139°42'0 0.0
2018-Jul-11 03:00N 35°28' E 139°42'0 0.0
2018-Jul-11 02:30N 35°28' E 139°42'0 0.0
2018-Jul-11 02:00N 35°28' E 139°42'0 0.0
2018-Jul-11 01:30N 35°28' E 139°42'0 0.0
2018-Jul-11 00:57N 35°28' E 139°42'0 0.0
2018-Jul-11 00:30N 35°28' E 139°42'0 0.0
2018-Jul-11 00:00N 35°28' E 139°42'0 0.0
2018-Jul-10 23:30N 35°28' E 139°42'0 0.0
2018-Jul-10 23:00N 35°28' E 139°42'0 0.0
2018-Jul-10 22:30N 35°28' E 139°42'0 0.0
2018-Jul-10 22:00N 35°28' E 139°42'0 0.0
2018-Jul-10 21:30N 35°28' E 139°42'0 0.0
2018-Jul-10 21:00N 35°28' E 139°42'0 0.0
2018-Jul-10 20:30N 35°28' E 139°42'0 0.0
2018-Jul-10 20:00N 35°28' E 139°42'0 0.0
2018-Jul-10 19:30N 35°28' E 139°42'0 0.0
2018-Jul-10 18:54N 35°28' E 139°42'0 0.0
2018-Jul-10 18:30N 35°28' E 139°42'0 0.0
2018-Jul-10 18:00N 35°28' E 139°42'0 0.0
2018-Jul-10 17:30N 35°28' E 139°42'0 0.0
2018-Jul-10 17:00N 35°28' E 139°42'0 0.0
2018-Jul-10 16:30N 35°28' E 139°42'0 0.0
2018-Jul-10 16:00N 35°28' E 139°42'0 0.0
2018-Jul-10 15:30N 35°28' E 139°42'0 0.0
2018-Jul-10 15:00N 35°28' E 139°42'0 0.0
2018-Jul-10 14:30N 35°28' E 139°42'0 0.0
2018-Jul-10 14:00N 35°28' E 139°42'0 0.0
2018-Jul-10 13:30N 35°28' E 139°42'0 0.0
2018-Jul-10 13:00N 35°28' E 139°42'0 0.0
2018-Jul-10 12:30N 35°28' E 139°42'0 0.0
2018-Jul-10 12:00N 35°28' E 139°42'0 0.0
2018-Jul-10 11:30N 35°28' E 139°42'0 0.0
2018-Jul-10 11:00N 35°28' E 139°42'0 0.0
2018-Jul-10 10:30N 35°28' E 139°42'0 0.0
2018-Jul-10 10:00N 35°28' E 139°42'0 0.0
2018-Jul-10 09:30N 35°28' E 139°42'0 0.0
2018-Jul-10 09:00N 35°28' E 139°42'0 0.0
2018-Jul-10 08:30N 35°28' E 139°42'0 0.0
2018-Jul-10 08:00N 35°28' E 139°42'0 0.0
2018-Jul-10 07:30N 35°28' E 139°42'0 0.0
2018-Jul-10 07:00N 35°28' E 139°42'0 0.0
2018-Jul-10 06:30N 35°28' E 139°42'0 0.0
2018-Jul-10 06:00N 35°28' E 139°42'0 0.0
2018-Jul-10 05:30N 35°28' E 139°42'0 0.6
2018-Jul-10 05:00N 35°28' E 139°42'1 2.7
2018-Jul-10 04:30N 35°27' E 139°43'1 2.6
2018-Jul-10 04:00N 35°26' E 139°42'0 0.9
2018-Jul-10 03:30N 35°26' E 139°42'0 0.0
2018-Jul-10 03:00N 35°26' E 139°42'0 0.0
2018-Jul-10 02:30N 35°26' E 139°42'0 0.0
2018-Jul-10 02:00N 35°26' E 139°42'0 0.0
2018-Jul-10 01:30N 35°26' E 139°42'0 0.0
2018-Jul-10 01:00N 35°26' E 139°42'0 0.0
2018-Jul-10 00:30N 35°26' E 139°42'0 0.0
2018-Jul-10 00:00N 35°26' E 139°42'0 0.0
2018-Jul-09 23:30N 35°26' E 139°42'0 0.1
2018-Jul-09 23:00N 35°26' E 139°42'0 0.1
2018-Jul-09 22:30N 35°26' E 139°42'0 0.1
2018-Jul-09 22:00N 35°26' E 139°42'0 0.0
2018-Jul-09 21:30N 35°26' E 139°42'0 0.1
2018-Jul-09 21:00N 35°26' E 139°42'0 0.0
2018-Jul-09 20:30N 35°26' E 139°42'0 0.0
2018-Jul-09 20:00N 35°26' E 139°42'0 0.1
2018-Jul-09 19:30N 35°26' E 139°42'0 0.1
2018-Jul-09 18:57N 35°26' E 139°42'0 0.1
2018-Jul-09 18:30N 35°26' E 139°42'0 0.1
2018-Jul-09 18:00N 35°26' E 139°42'0 0.0
2018-Jul-09 17:30N 35°26' E 139°42'0 0.1
2018-Jul-09 16:57N 35°26' E 139°42'0 0.0
2018-Jul-09 16:30N 35°26' E 139°42'0 0.0
2018-Jul-09 16:00N 35°26' E 139°42'0 0.0
2018-Jul-09 15:30N 35°26' E 139°42'0 0.0
2018-Jul-09 15:00N 35°26' E 139°42'0 0.0
2018-Jul-09 14:27N 35°26' E 139°42'0 0.0
2018-Jul-09 14:00N 35°26' E 139°42'0 0.0
2018-Jul-09 13:27N 35°26' E 139°42'0 0.0
2018-Jul-09 12:57N 35°26' E 139°42'0 0.0
2018-Jul-09 12:30N 35°26' E 139°42'0 0.0
2018-Jul-09 12:00N 35°26' E 139°42'0 0.0
2018-Jul-09 11:30N 35°26' E 139°42'0 0.0
2018-Jul-09 11:00N 35°26' E 139°42'0 0.0
2018-Jul-09 10:27N 35°26' E 139°42'0 0.0
2018-Jul-09 10:00N 35°26' E 139°42'0 0.0
2018-Jul-09 09:27N 35°26' E 139°42'0 0.0
2018-Jul-09 09:00N 35°26' E 139°42'0 0.0
2018-Jul-09 08:30N 35°26' E 139°42'0 0.0
2018-Jul-09 08:00N 35°26' E 139°42'0 0.0
2018-Jul-09 07:27N 35°26' E 139°42'0 0.0
2018-Jul-09 07:00N 35°26' E 139°42'0 0.0
2018-Jul-09 06:30N 35°26' E 139°42'0 0.0
2018-Jul-09 05:57N 35°26' E 139°42'0 0.0
2018-Jul-09 05:30N 35°26' E 139°42'0 0.0
2018-Jul-09 04:57N 35°26' E 139°42'0 0.0
2018-Jul-09 04:30N 35°26' E 139°42'0 0.0
2018-Jul-09 04:00N 35°26' E 139°42'0 0.0
2018-Jul-09 03:30N 35°26' E 139°42'0 0.0
2018-Jul-09 02:57N 35°26' E 139°42'0 0.1
2018-Jul-09 02:30N 35°26' E 139°42'0 0.0
2018-Jul-09 02:00N 35°26' E 139°42'0 0.0
2018-Jul-09 01:30N 35°26' E 139°42'0 0.2
2018-Jul-09 01:00N 35°26' E 139°42'1 2.6
2018-Jul-09 00:30N 35°25' E 139°42'5 9.8
2018-Jul-09 00:00N 35°20' E 139°43'510.4
2018-Jul-08 23:30N 35°16' E 139°47'510.1
2018-Jul-08 23:00N 35°11' E 139°46'510.0
2018-Jul-08 22:30N 35°06' E 139°45'510.2
2018-Jul-08 22:00N 35°02' E 139°40'612.0
2018-Jul-08 21:30N 34°59' E 139°34'612.8
2018-Jul-08 21:00N 34°54' E 139°28'1112.8
2018-Jul-08 20:08N 34°48' E 139°18'  
Track history (hours):
 
Tides and Currents Weather Stations Pressure Air Temp Water Temp Dewpoint Dewpoint Depression Visibility Wind Speed Wind Dir Waves Ship Positions

East Star-1

Last reported at 2018-Jul-12 12:42 UTC. Time now 2018-Jul-15 20:53 UTC.
Position N 34°51' E 139°19'.

Length 99 m; draft 5.9 m.

Type: Cargo ship. MMSI: 667001708.

Date/timePositionNaut miles runAvg speedWind from/ knotsBaromVisibWave heightAir tempDewpointWater temp
2018-Jul-12 12:42N 34°51' E 139°19'2 7.6
2018-Jul-12 12:27N 34°52' E 139°21'3 7.6
2018-Jul-12 12:00N 34°54' E 139°24'4 7.4
2018-Jul-12 11:27N 34°57' E 139°27'4 8.2
2018-Jul-12 11:00N 34°59' E 139°31'5 9.5
2018-Jul-12 10:30N 35°02' E 139°36'510.3
2018-Jul-12 10:00N 35°05' E 139°41'510.0
2018-Jul-12 09:30N 35°09' E 139°44'510.6
2018-Jul-12 09:00N 35°14' E 139°46'510.4
2018-Jul-12 08:30N 35°19' E 139°43'510.0
2018-Jul-12 08:00N 35°24' E 139°43'4 7.2
2018-Jul-12 07:30N 35°27' E 139°43'1 2.1
2018-Jul-12 07:00N 35°28' E 139°42'0 0.0
2018-Jul-12 06:27N 35°28' E 139°42'0 0.0
2018-Jul-12 05:57N 35°28' E 139°42'0 0.0
2018-Jul-12 05:30N 35°28' E 139°42'0 0.0
2018-Jul-12 05:00N 35°28' E 139°42'0 0.0
2018-Jul-12 04:30N 35°28' E 139°42'0 0.0
2018-Jul-12 04:00N 35°28' E 139°42'0 0.0
2018-Jul-12 03:30N 35°28' E 139°42'0 0.0
2018-Jul-12 02:57N 35°28' E 139°42'0 0.0
2018-Jul-12 02:30N 35°28' E 139°42'0 0.0
2018-Jul-12 02:00N 35°28' E 139°42'0 0.0
2018-Jul-12 01:30N 35°28' E 139°42'0 0.0
2018-Jul-12 01:00N 35°28' E 139°42'0 0.0
2018-Jul-12 00:30N 35°28' E 139°42'0 0.0
2018-Jul-12 00:00N 35°28' E 139°42'0 0.0
2018-Jul-11 23:30N 35°28' E 139°42'0 0.0
2018-Jul-11 23:00N 35°28' E 139°42'0 0.0
2018-Jul-11 22:30N 35°28' E 139°42'0 0.0
2018-Jul-11 22:00N 35°28' E 139°42'0 0.0
2018-Jul-11 21:30N 35°28' E 139°42'0 0.0
2018-Jul-11 21:00N 35°28' E 139°42'0 0.0
2018-Jul-11 20:30N 35°28' E 139°42'0 0.0
2018-Jul-11 20:00N 35°28' E 139°42'0 0.0
2018-Jul-11 19:30N 35°28' E 139°42'0 0.0
2018-Jul-11 19:00N 35°28' E 139°42'0 0.0
2018-Jul-11 18:30N 35°28' E 139°42'0 0.0
2018-Jul-11 18:00N 35°28' E 139°42'0 0.0
2018-Jul-11 17:24N 35°28' E 139°42'0 0.0
2018-Jul-11 17:00N 35°28' E 139°42'0 0.0
2018-Jul-11 16:30N 35°28' E 139°42'0 0.0
2018-Jul-11 16:00N 35°28' E 139°42'0 0.0
2018-Jul-11 15:30N 35°28' E 139°42'0 0.0
2018-Jul-11 15:00N 35°28' E 139°42'0 0.0
2018-Jul-11 14:30N 35°28' E 139°42'0 0.0
2018-Jul-11 14:00N 35°28' E 139°42'0 0.0
2018-Jul-11 13:30N 35°28' E 139°42'0 0.0
2018-Jul-11 13:00N 35°28' E 139°42'0 0.0
2018-Jul-11 12:30N 35°28' E 139°42'0 0.0
2018-Jul-11 12:00N 35°28' E 139°42'0 0.0
2018-Jul-11 11:30N 35°28' E 139°42'0 0.0
2018-Jul-11 10:57N 35°28' E 139°42'0 0.0
2018-Jul-11 10:30N 35°28' E 139°42'0 0.0
2018-Jul-11 10:00N 35°28' E 139°42'0 0.0
2018-Jul-11 09:30N 35°28' E 139°42'0 0.0
2018-Jul-11 09:00N 35°28' E 139°42'0 0.0
2018-Jul-11 08:30N 35°28' E 139°42'0 0.0
2018-Jul-11 08:00N 35°28' E 139°42'0 0.0
2018-Jul-11 07:30N 35°28' E 139°42'0 0.0
2018-Jul-11 06:57N 35°28' E 139°42'0 0.0
2018-Jul-11 06:30N 35°28' E 139°42'0 0.0
2018-Jul-11 06:00N 35°28' E 139°42'0 0.0
2018-Jul-11 05:30N 35°28' E 139°42'0 0.0
2018-Jul-11 05:00N 35°28' E 139°42'0 0.0
2018-Jul-11 04:30N 35°28' E 139°42'0 0.0
2018-Jul-11 04:00N 35°28' E 139°42'0 0.0
2018-Jul-11 03:30N 35°28' E 139°42'0 0.0
2018-Jul-11 03:00N 35°28' E 139°42'0 0.0
2018-Jul-11 02:30N 35°28' E 139°42'0 0.0
2018-Jul-11 02:00N 35°28' E 139°42'0 0.0
2018-Jul-11 01:30N 35°28' E 139°42'0 0.0
2018-Jul-11 00:57N 35°28' E 139°42'0 0.0
2018-Jul-11 00:30N 35°28' E 139°42'0 0.0
2018-Jul-11 00:00N 35°28' E 139°42'0 0.0
2018-Jul-10 23:30N 35°28' E 139°42'0 0.0
2018-Jul-10 23:00N 35°28' E 139°42'0 0.0
2018-Jul-10 22:30N 35°28' E 139°42'0 0.0
2018-Jul-10 22:00N 35°28' E 139°42'0 0.0
2018-Jul-10 21:30N 35°28' E 139°42'0 0.0
2018-Jul-10 21:00N 35°28' E 139°42'0 0.0
2018-Jul-10 20:30N 35°28' E 139°42'0 0.0
2018-Jul-10 20:00N 35°28' E 139°42'0 0.0
2018-Jul-10 19:30N 35°28' E 139°42'0 0.0
2018-Jul-10 18:54N 35°28' E 139°42'0 0.0
2018-Jul-10 18:30N 35°28' E 139°42'0 0.0
2018-Jul-10 18:00N 35°28' E 139°42'0 0.0
2018-Jul-10 17:30N 35°28' E 139°42'0 0.0
2018-Jul-10 17:00N 35°28' E 139°42'0 0.0
2018-Jul-10 16:30N 35°28' E 139°42'0 0.0
2018-Jul-10 16:00N 35°28' E 139°42'0 0.0
2018-Jul-10 15:30N 35°28' E 139°42'0 0.0
2018-Jul-10 15:00N 35°28' E 139°42'0 0.0
2018-Jul-10 14:30N 35°28' E 139°42'0 0.0
2018-Jul-10 14:00N 35°28' E 139°42'0 0.0
2018-Jul-10 13:30N 35°28' E 139°42'0 0.0
2018-Jul-10 13:00N 35°28' E 139°42'0 0.0
2018-Jul-10 12:30N 35°28' E 139°42'0 0.0
2018-Jul-10 12:00N 35°28' E 139°42'0 0.0
2018-Jul-10 11:30N 35°28' E 139°42'0 0.0
2018-Jul-10 11:00N 35°28' E 139°42'0 0.0
2018-Jul-10 10:30N 35°28' E 139°42'0 0.0
2018-Jul-10 10:00N 35°28' E 139°42'0 0.0
2018-Jul-10 09:30N 35°28' E 139°42'0 0.0
2018-Jul-10 09:00N 35°28' E 139°42'0 0.0
2018-Jul-10 08:30N 35°28' E 139°42'0 0.0
2018-Jul-10 08:00N 35°28' E 139°42'0 0.0
2018-Jul-10 07:30N 35°28' E 139°42'0 0.0
2018-Jul-10 07:00N 35°28' E 139°42'0 0.0
2018-Jul-10 06:30N 35°28' E 139°42'0 0.0
2018-Jul-10 06:00N 35°28' E 139°42'0 0.0
2018-Jul-10 05:30N 35°28' E 139°42'0 0.6
2018-Jul-10 05:00N 35°28' E 139°42'1 2.7
2018-Jul-10 04:30N 35°27' E 139°43'1 2.6
2018-Jul-10 04:00N 35°26' E 139°42'0 0.9
2018-Jul-10 03:30N 35°26' E 139°42'0 0.0
2018-Jul-10 03:00N 35°26' E 139°42'0 0.0
2018-Jul-10 02:30N 35°26' E 139°42'0 0.0
2018-Jul-10 02:00N 35°26' E 139°42'0 0.0
2018-Jul-10 01:30N 35°26' E 139°42'0 0.0
2018-Jul-10 01:00N 35°26' E 139°42'0 0.0
2018-Jul-10 00:30N 35°26' E 139°42'0 0.0
2018-Jul-10 00:00N 35°26' E 139°42'0 0.0
2018-Jul-09 23:30N 35°26' E 139°42'0 0.1
2018-Jul-09 23:00N 35°26' E 139°42'0 0.1
2018-Jul-09 22:30N 35°26' E 139°42'0 0.1
2018-Jul-09 22:00N 35°26' E 139°42'0 0.0
2018-Jul-09 21:30N 35°26' E 139°42'0 0.1
2018-Jul-09 21:00N 35°26' E 139°42'0 0.0
2018-Jul-09 20:30N 35°26' E 139°42'0 0.0
2018-Jul-09 20:00N 35°26' E 139°42'0 0.1
2018-Jul-09 19:30N 35°26' E 139°42'0 0.1
2018-Jul-09 18:57N 35°26' E 139°42'0 0.1
2018-Jul-09 18:30N 35°26' E 139°42'0 0.1
2018-Jul-09 18:00N 35°26' E 139°42'0 0.0
2018-Jul-09 17:30N 35°26' E 139°42'0 0.1
2018-Jul-09 16:57N 35°26' E 139°42'0 0.0
2018-Jul-09 16:30N 35°26' E 139°42'0 0.0
2018-Jul-09 16:00N 35°26' E 139°42'0 0.0
2018-Jul-09 15:30N 35°26' E 139°42'0 0.0
2018-Jul-09 15:00N 35°26' E 139°42'0 0.0
2018-Jul-09 14:27N 35°26' E 139°42'0 0.0
2018-Jul-09 14:00N 35°26' E 139°42'0 0.0
2018-Jul-09 13:27N 35°26' E 139°42'0 0.0
2018-Jul-09 12:57N 35°26' E 139°42'0 0.0
2018-Jul-09 12:30N 35°26' E 139°42'0 0.0
2018-Jul-09 12:00N 35°26' E 139°42'0 0.0
2018-Jul-09 11:30N 35°26' E 139°42'0 0.0
2018-Jul-09 11:00N 35°26' E 139°42'0 0.0
2018-Jul-09 10:27N 35°26' E 139°42'0 0.0
2018-Jul-09 10:00N 35°26' E 139°42'0 0.0
2018-Jul-09 09:27N 35°26' E 139°42'0 0.0
2018-Jul-09 09:00N 35°26' E 139°42'0 0.0
2018-Jul-09 08:30N 35°26' E 139°42'0 0.0
2018-Jul-09 08:00N 35°26' E 139°42'0 0.0
2018-Jul-09 07:27N 35°26' E 139°42'0 0.0
2018-Jul-09 07:00N 35°26' E 139°42'0 0.0
2018-Jul-09 06:30N 35°26' E 139°42'0 0.0
2018-Jul-09 05:57N 35°26' E 139°42'0 0.0
2018-Jul-09 05:30N 35°26' E 139°42'0 0.0
2018-Jul-09 04:57N 35°26' E 139°42'0 0.0
2018-Jul-09 04:30N 35°26' E 139°42'0 0.0
2018-Jul-09 04:00N 35°26' E 139°42'0 0.0
2018-Jul-09 03:30N 35°26' E 139°42'0 0.0
2018-Jul-09 02:57N 35°26' E 139°42'0 0.1
2018-Jul-09 02:30N 35°26' E 139°42'0 0.0
2018-Jul-09 02:00N 35°26' E 139°42'0 0.0
2018-Jul-09 01:30N 35°26' E 139°42'0 0.2
2018-Jul-09 01:00N 35°26' E 139°42'1 2.6
2018-Jul-09 00:30N 35°25' E 139°42'5 9.8
2018-Jul-09 00:00N 35°20' E 139°43'510.4
2018-Jul-08 23:30N 35°16' E 139°47'510.1
2018-Jul-08 23:00N 35°11' E 139°46'510.0
2018-Jul-08 22:30N 35°06' E 139°45'510.2
2018-Jul-08 22:00N 35°02' E 139°40'612.0
2018-Jul-08 21:30N 34°59' E 139°34'612.8
2018-Jul-08 21:00N 34°54' E 139°28'1112.8
2018-Jul-08 20:08N 34°48' E 139°18'  

Dump ship's entire track history